createdAt,value
2023-04-22T00:00:44.063Z,100146.13
2023-04-22T00:01:46.316Z,100145.56
2023-04-22T00:02:48.838Z,100147.78
2023-04-22T00:03:52.336Z,100152.44
2023-04-22T00:04:55.297Z,100149.13
2023-04-22T00:05:57.837Z,100148.28
2023-04-22T00:07:00.624Z,100151.31
2023-04-22T00:08:03.479Z,100148.81
2023-04-22T00:09:06.189Z,100155.44
2023-04-22T00:10:09.986Z,100154.03
2023-04-22T00:11:13.764Z,100153.50
2023-04-22T00:12:16.048Z,100152.09
2023-04-22T00:13:18.476Z,100143.22
2023-04-22T00:14:20.694Z,100147.06
2023-04-22T00:15:22.980Z,100146.78
2023-04-22T00:16:26.493Z,100149.56
2023-04-22T00:17:28.803Z,100140.97
2023-04-22T00:18:31.148Z,100135.72
2023-04-22T00:19:33.727Z,100147.25
2023-04-22T00:20:36.611Z,100144.75
2023-04-22T00:21:39.043Z,100136.72
2023-04-22T00:22:41.429Z,100138.91
2023-04-22T00:23:45.497Z,100141.09
2023-04-22T00:24:48.089Z,100142.19
2023-04-22T00:25:51.265Z,100142.72
2023-04-22T00:26:53.526Z,100141.06
2023-04-22T00:27:55.752Z,100144.31
2023-04-22T00:28:58.098Z,100139.94
2023-04-22T00:30:00.484Z,100142.69
2023-04-22T00:31:04.941Z,100138.53
2023-04-22T00:32:07.195Z,100136.00
2023-04-22T00:33:09.664Z,100138.75
2023-04-22T00:34:12.153Z,100140.69
2023-04-22T00:35:14.448Z,100140.97
2023-04-22T00:36:16.780Z,100140.97
2023-04-22T00:37:19.006Z,100136.53
2023-04-22T00:38:22.344Z,100142.31
2023-04-22T00:39:24.679Z,100142.59
2023-04-22T00:40:27.298Z,100135.66
2023-04-22T00:41:31.297Z,100140.34
2023-04-22T00:42:33.659Z,100134.00
2023-04-22T00:43:36.226Z,100135.94
2023-04-22T00:44:39.404Z,100131.50
2023-04-22T00:45:43.073Z,100130.66
2023-04-22T00:46:46.320Z,100129.00
2023-04-22T00:47:49.267Z,100128.44
2023-04-22T00:48:52.651Z,100133.38
2023-04-22T00:49:55.328Z,100128.97
2023-04-22T00:50:57.620Z,100122.84
2023-04-22T00:51:59.937Z,100127.56
2023-04-22T00:53:02.167Z,100123.13
2023-04-22T00:54:06.189Z,100128.06
2023-04-22T00:55:08.762Z,100129.16
2023-04-22T00:56:12.199Z,100128.59
2023-04-22T00:57:14.927Z,100125.25
2023-04-22T00:58:19.160Z,100122.50
2023-04-22T00:59:23.587Z,100118.91
2023-04-22T01:00:27.549Z,100126.59
2023-04-22T01:01:30.809Z,100117.50
2023-04-22T01:02:33.646Z,100118.59
2023-04-22T01:03:39.275Z,100123.56
2023-04-22T01:04:41.956Z,100112.75
2023-04-22T01:05:45.283Z,100116.63
2023-04-22T01:06:47.860Z,100111.34
2023-04-22T01:07:51.338Z,100120.47
2023-04-22T01:08:54.247Z,100113.56
2023-04-22T01:09:57.611Z,100110.78
2023-04-22T01:11:01.154Z,100113.81
2023-04-22T01:12:03.550Z,100118.47
2023-04-22T01:13:06.075Z,100115.72
2023-04-22T01:14:08.525Z,100118.47
2023-04-22T01:15:11.658Z,100116.00
2023-04-22T01:16:14.035Z,100117.06
2023-04-22T01:17:16.876Z,100113.50
2023-04-22T01:18:19.552Z,100112.66
2023-04-22T01:19:22.199Z,100114.84
2023-04-22T01:20:25.341Z,100112.09
2023-04-22T01:21:28.230Z,100110.16
2023-04-22T01:22:36.487Z,100108.47
2023-04-22T01:23:38.847Z,100113.19
2023-04-22T01:24:42.292Z,100109.84
2023-04-22T01:25:44.706Z,100107.06
2023-04-22T01:26:48.123Z,100117.28
2023-04-22T01:27:50.758Z,100117.03
2023-04-22T01:28:53.140Z,100109.00
2023-04-22T01:29:55.804Z,100110.09
2023-04-22T01:30:58.272Z,100104.84
2023-04-22T01:32:00.878Z,100114.22
2023-04-22T01:33:05.513Z,100122.22
2023-04-22T01:34:07.927Z,100119.72
2023-04-22T01:35:10.754Z,100122.47
2023-04-22T01:36:13.342Z,100118.06
2023-04-22T01:37:15.678Z,100113.38
2023-04-22T01:38:18.476Z,100112.56
2023-04-22T01:39:20.797Z,100111.72
2023-04-22T01:40:23.524Z,100114.47
2023-04-22T01:41:25.973Z,100110.03
2023-04-22T01:42:28.488Z,100108.41
2023-04-22T01:43:31.103Z,100111.16
2023-04-22T01:44:33.361Z,100107.56
2023-04-22T01:45:37.721Z,100113.59
2023-04-22T01:46:40.421Z,100106.13
2023-04-22T01:47:42.972Z,100103.06
2023-04-22T01:48:50.562Z,100108.84
2023-04-22T01:49:53.120Z,100104.41
2023-04-22T01:50:55.629Z,100112.13
2023-04-22T01:52:01.050Z,100104.94
2023-04-22T01:53:03.480Z,100098.84
2023-04-22T01:54:06.160Z,100102.72
2023-04-22T01:55:09.221Z,100105.47
2023-04-22T01:56:11.607Z,100108.47
2023-04-22T01:57:14.683Z,100102.13
2023-04-22T01:58:17.183Z,100103.47
2023-04-22T01:59:21.258Z,100100.72
2023-04-22T02:00:25.996Z,100101.25
2023-04-22T02:01:28.345Z,100096.81
2023-04-22T02:02:30.749Z,100097.06
2023-04-22T02:03:33.191Z,100096.50
2023-04-22T02:04:35.991Z,100096.75
2023-04-22T02:05:38.453Z,100099.78
2023-04-22T02:06:40.901Z,100094.53
2023-04-22T02:07:43.253Z,100098.34
2023-04-22T02:08:45.581Z,100098.63
2023-04-22T02:09:50.773Z,100096.09
2023-04-22T02:10:53.214Z,100099.38
2023-04-22T02:11:55.498Z,100098.56
2023-04-22T02:12:58.237Z,100088.88
2023-04-22T02:14:00.558Z,100094.38
2023-04-22T02:15:03.415Z,100088.88
2023-04-22T02:16:06.412Z,100095.75
2023-04-22T02:17:08.740Z,100092.13
2023-04-22T02:18:11.446Z,100096.00
2023-04-22T02:19:13.795Z,100085.81
2023-04-22T02:20:16.219Z,100086.88
2023-04-22T02:21:20.238Z,100089.63
2023-04-22T02:22:23.871Z,100090.72
2023-04-22T02:23:27.786Z,100089.91
2023-04-22T02:24:30.175Z,100087.41
2023-04-22T02:25:33.951Z,100084.66
2023-04-22T02:26:36.391Z,100092.31
2023-04-22T02:27:39.546Z,100084.31
2023-04-22T02:28:42.912Z,100085.13
2023-04-22T02:29:46.106Z,100080.75
2023-04-22T02:30:48.983Z,100084.59
2023-04-22T02:31:51.340Z,100086.25
2023-04-22T02:32:53.925Z,100074.38
2023-04-22T02:33:56.280Z,100079.91
2023-04-22T02:34:58.532Z,100082.91
2023-04-22T02:36:00.804Z,100077.41
2023-04-22T02:37:03.493Z,100079.81
2023-04-22T02:38:06.076Z,100078.75
2023-04-22T02:39:08.398Z,100072.41
2023-04-22T02:40:11.641Z,100071.56
2023-04-22T02:41:13.852Z,100075.41
2023-04-22T02:42:17.501Z,100077.34
2023-04-22T02:43:19.754Z,100078.16
2023-04-22T02:44:23.484Z,100083.66
2023-04-22T02:45:25.812Z,100079.47
2023-04-22T02:46:28.207Z,100078.41
2023-04-22T02:47:31.416Z,100076.72
2023-04-22T02:48:33.696Z,100082.03
2023-04-22T02:49:36.069Z,100078.41
2023-04-22T02:50:38.736Z,100079.47
2023-04-22T02:51:41.093Z,100085.22
2023-04-22T02:52:43.419Z,100079.72
2023-04-22T02:53:45.649Z,100073.41
2023-04-22T02:54:50.191Z,100072.56
2023-04-22T02:55:52.612Z,100076.41
2023-04-22T02:56:54.943Z,100075.56
2023-04-22T02:57:57.218Z,100073.91
2023-04-22T02:58:59.594Z,100075.00
2023-04-22T03:00:02.108Z,100079.44
2023-04-22T03:01:04.731Z,100076.66
2023-04-22T03:02:07.208Z,100077.75
2023-04-22T03:03:20.217Z,100074.16
2023-04-22T03:04:22.770Z,100076.34
2023-04-22T03:05:25.465Z,100072.75
2023-04-22T03:06:27.974Z,100073.59
2023-04-22T03:07:30.414Z,100071.09
2023-04-22T03:08:33.392Z,100078.25
2023-04-22T03:09:35.725Z,100067.75
2023-04-22T03:10:37.978Z,100065.81
2023-04-22T03:11:40.261Z,100076.00
2023-04-22T03:12:42.571Z,100076.00
2023-04-22T03:13:44.887Z,100068.84
2023-04-22T03:14:47.419Z,100067.16
2023-04-22T03:15:50.277Z,100065.75
2023-04-22T03:16:52.997Z,100063.84
2023-04-22T03:17:55.614Z,100066.59
2023-04-22T03:18:59.166Z,100065.75
2023-04-22T03:20:01.663Z,100071.50
2023-04-22T03:21:04.960Z,100069.63
2023-04-22T03:22:07.264Z,100066.84
2023-04-22T03:23:09.631Z,100060.75
2023-04-22T03:24:12.907Z,100062.44
2023-04-22T03:25:20.276Z,100066.53
2023-04-22T03:26:27.684Z,100066.53
2023-04-22T03:27:30.245Z,100064.84
2023-04-22T03:28:32.612Z,100054.91
2023-04-22T03:29:35.017Z,100057.94
2023-04-22T03:30:37.371Z,100058.78
2023-04-22T03:31:39.860Z,100059.59
2023-04-22T03:32:42.240Z,100065.13
2023-04-22T03:33:57.428Z,100058.78
2023-04-22T03:35:03.716Z,100061.78
2023-04-22T03:36:06.289Z,100062.63
2023-04-22T03:37:09.376Z,100060.13
2023-04-22T03:38:11.946Z,100062.63
2023-04-22T03:39:14.234Z,100057.38
2023-04-22T03:40:30.172Z,100056.78
2023-04-22T03:41:33.574Z,100066.72
2023-04-22T03:42:36.332Z,100061.47
2023-04-22T03:43:38.759Z,100062.56
2023-04-22T03:44:43.805Z,100065.31
2023-04-22T03:45:47.389Z,100062.56
2023-04-22T03:46:54.565Z,100071.06
2023-04-22T03:48:00.459Z,100069.94
2023-04-22T03:49:12.088Z,100060.06
2023-04-22T03:50:14.421Z,100066.91
2023-04-22T03:51:16.822Z,100066.91
2023-04-22T03:52:19.117Z,100068.53
2023-04-22T03:53:29.687Z,100058.88
2023-04-22T03:54:32.103Z,100060.81
2023-04-22T03:55:35.084Z,100063.81
2023-04-22T03:56:37.533Z,100061.06
2023-04-22T03:57:41.163Z,100058.31
2023-04-22T03:58:44.731Z,100059.38
2023-04-22T03:59:46.988Z,100057.16
2023-04-22T04:00:49.357Z,100061.53
2023-04-22T04:01:54.353Z,100066.22
2023-04-22T04:03:00.875Z,100059.06
2023-04-22T04:04:03.797Z,100071.13
2023-04-22T04:05:17.933Z,100059.31
2023-04-22T04:06:20.363Z,100058.50
2023-04-22T04:07:22.774Z,100056.00
2023-04-22T04:08:26.939Z,100062.31
2023-04-22T04:09:29.292Z,100065.34
2023-04-22T04:10:33.563Z,100065.34
2023-04-22T04:11:36.689Z,100055.66
2023-04-22T04:12:39.705Z,100060.09
2023-04-22T04:13:42.153Z,100062.84
2023-04-22T04:14:53.129Z,100058.66
2023-04-22T04:15:58.784Z,100056.75
2023-04-22T04:17:04.256Z,100061.66
2023-04-22T04:18:09.941Z,100056.75
2023-04-22T04:19:12.670Z,100058.66
2023-04-22T04:20:16.327Z,100057.00
2023-04-22T04:21:18.704Z,100060.56
2023-04-22T04:22:25.041Z,100057.81
2023-04-22T04:23:32.683Z,100056.16
2023-04-22T04:24:36.839Z,100055.31
2023-04-22T04:25:46.416Z,100059.50
2023-04-22T04:26:49.680Z,100060.81
2023-04-22T04:27:59.187Z,100062.50
2023-04-22T04:29:02.003Z,100056.16
2023-04-22T04:30:05.178Z,100058.91
2023-04-22T04:31:19.961Z,100055.31
2023-04-22T04:32:24.126Z,100058.06
2023-04-22T04:33:27.310Z,100054.50
2023-04-22T04:34:29.636Z,100061.66
2023-04-22T04:35:37.710Z,100058.06
2023-04-22T04:36:43.972Z,100063.84
2023-04-22T04:37:54.035Z,100057.25
2023-04-22T04:38:56.978Z,100061.09
2023-04-22T04:40:00.520Z,100057.25
2023-04-22T04:41:12.759Z,100061.91
2023-04-22T04:42:15.476Z,100057.00
2023-04-22T04:43:28.177Z,100064.19
2023-04-22T04:44:37.946Z,100066.66
2023-04-22T04:45:48.439Z,100062.84
2023-04-22T04:46:55.042Z,100063.66
2023-04-22T04:47:58.637Z,100065.88
2023-04-22T04:49:07.489Z,100060.38
2023-04-22T04:50:16.676Z,100057.16
2023-04-22T04:51:20.563Z,100062.41
2023-04-22T04:52:32.475Z,100061.88
2023-04-22T04:53:35.309Z,100056.97
2023-04-22T04:54:38.162Z,100061.94
2023-04-22T04:55:41.047Z,100064.22
2023-04-22T04:56:51.635Z,100060.94
2023-04-22T04:57:54.298Z,100056.59
2023-04-22T04:58:56.698Z,100064.09
2023-04-22T05:00:03.162Z,100060.56
2023-04-22T05:01:06.443Z,100067.22
2023-04-22T05:02:11.536Z,100055.72
2023-04-22T05:03:14.147Z,100058.28
2023-04-22T05:04:17.019Z,100064.72
2023-04-22T05:05:19.884Z,100059.28
2023-04-22T05:06:22.555Z,100061.81
2023-04-22T05:07:30.393Z,100058.88
2023-04-22T05:08:33.907Z,100062.53
2023-04-22T05:09:42.007Z,100070.06
2023-04-22T05:10:45.332Z,100059.97
2023-04-22T05:11:48.202Z,100065.25
2023-04-22T05:12:54.827Z,100066.47
2023-04-22T05:14:00.522Z,100070.09
2023-04-22T05:15:08.177Z,100074.03
2023-04-22T05:16:10.834Z,100068.09
2023-04-22T05:17:14.621Z,100072.28
2023-04-22T05:18:17.995Z,100074.56
2023-04-22T05:19:20.409Z,100076.84
2023-04-22T05:20:23.864Z,100076.38
2023-04-22T05:21:26.141Z,100070.34
2023-04-22T05:22:29.250Z,100066.28
2023-04-22T05:23:31.810Z,100071.06
2023-04-22T05:24:36.851Z,100071.41
2023-04-22T05:25:39.789Z,100065.38
2023-04-22T05:26:46.382Z,100070.72
2023-04-22T05:27:52.448Z,100075.72
2023-04-22T05:28:55.431Z,100073.03
2023-04-22T05:29:58.385Z,100075.00
2023-04-22T05:31:05.003Z,100075.31
2023-04-22T05:32:09.101Z,100069.28
2023-04-22T05:33:11.511Z,100082.31
2023-04-22T05:34:14.505Z,100077.94
2023-04-22T05:35:16.935Z,100071.63
2023-04-22T05:36:19.285Z,100077.41
2023-04-22T05:37:24.111Z,100081.31
2023-04-22T05:38:26.855Z,100074.19
2023-04-22T05:39:31.363Z,100066.75
2023-04-22T05:40:36.014Z,100066.75
2023-04-22T05:41:39.891Z,100073.94
2023-04-22T05:42:45.177Z,100073.41
2023-04-22T05:43:47.621Z,100072.28
2023-04-22T05:44:53.001Z,100070.34
2023-04-22T05:45:55.648Z,100068.41
2023-04-22T05:46:58.007Z,100071.97
2023-04-22T05:48:02.516Z,100075.28
2023-04-22T05:49:08.883Z,100074.69
2023-04-22T05:50:31.055Z,100077.75
2023-04-22T05:51:40.150Z,100070.50
2023-04-22T05:52:44.080Z,100074.06
2023-04-22T05:53:50.181Z,100069.03
2023-04-22T05:54:53.905Z,100070.91
2023-04-22T05:55:56.725Z,100069.22
2023-04-22T05:56:59.871Z,100080.81
2023-04-22T05:58:02.290Z,100079.91
2023-04-22T05:59:25.499Z,100077.03
2023-04-22T06:00:28.172Z,100072.28
2023-04-22T06:01:46.133Z,100077.47
2023-04-22T06:02:52.237Z,100071.53
2023-04-22T06:03:55.118Z,100073.09
2023-04-22T06:04:58.938Z,100068.28
2023-04-22T06:06:02.675Z,100064.28
2023-04-22T06:07:05.098Z,100071.09
2023-04-22T06:08:07.461Z,100066.56
2023-04-22T06:09:10.965Z,100069.78
2023-04-22T06:10:15.960Z,100070.50
2023-04-22T06:11:18.338Z,100067.31
2023-04-22T06:12:20.654Z,100068.84
2023-04-22T06:13:24.022Z,100072.31
2023-04-22T06:14:26.857Z,100071.88
2023-04-22T06:15:30.137Z,100080.63
2023-04-22T06:16:34.306Z,100079.38
2023-04-22T06:17:36.824Z,100078.06
2023-04-22T06:18:39.984Z,100079.56
2023-04-22T06:19:46.366Z,100084.41
2023-04-22T06:20:48.975Z,100081.16
2023-04-22T06:21:51.640Z,100077.06
2023-04-22T06:22:53.922Z,100082.16
2023-04-22T06:23:56.396Z,100075.28
2023-04-22T06:24:58.735Z,100076.78
2023-04-22T06:26:02.117Z,100081.00
2023-04-22T06:27:05.373Z,100068.00
2023-04-22T06:28:07.708Z,100066.69
2023-04-22T06:29:11.127Z,100067.13
2023-04-22T06:30:15.062Z,100076.44
2023-04-22T06:31:18.886Z,100068.97
2023-04-22T06:32:22.927Z,100069.59
2023-04-22T06:33:25.277Z,100061.84
2023-04-22T06:34:27.546Z,100068.50
2023-04-22T06:35:29.841Z,100074.38
2023-04-22T06:36:33.961Z,100063.50
2023-04-22T06:37:37.854Z,100073.84
2023-04-22T06:38:42.612Z,100067.34
2023-04-22T06:40:04.190Z,100068.94
2023-04-22T06:41:25.057Z,100064.13
2023-04-22T06:42:30.621Z,100069.13
2023-04-22T06:43:51.472Z,100073.50
2023-04-22T06:44:53.697Z,100066.50
2023-04-22T06:46:12.306Z,100073.31
2023-04-22T06:47:26.956Z,100069.94
2023-04-22T06:48:35.441Z,100068.78
2023-04-22T06:49:56.080Z,100076.56
2023-04-22T06:51:05.886Z,100075.13
2023-04-22T06:52:08.195Z,100082.75
2023-04-22T06:53:10.798Z,100068.78
2023-04-22T06:54:13.121Z,100078.66
2023-04-22T06:55:15.354Z,100074.88
2023-04-22T06:56:18.178Z,100071.28
2023-04-22T06:57:20.459Z,100075.72
2023-04-22T06:58:22.766Z,100070.94
2023-04-22T06:59:25.447Z,100074.41
2023-04-22T07:00:28.433Z,100080.66
2023-04-22T07:01:30.841Z,100074.75
2023-04-22T07:02:35.810Z,100077.56
2023-04-22T07:03:38.566Z,100084.00
2023-04-22T07:04:44.845Z,100077.38
2023-04-22T07:05:48.884Z,100075.22
2023-04-22T07:06:51.311Z,100082.28
2023-04-22T07:07:53.878Z,100078.97
2023-04-22T07:08:58.589Z,100075.34
2023-04-22T07:10:01.306Z,100064.91
2023-04-22T07:11:12.546Z,100065.72
2023-04-22T07:12:25.896Z,100065.34
2023-04-22T07:13:28.183Z,100061.22
2023-04-22T07:14:30.493Z,100060.00
2023-04-22T07:15:32.775Z,100064.91
2023-04-22T07:16:35.149Z,100062.41
2023-04-22T07:17:37.434Z,100058.72
2023-04-22T07:18:40.211Z,100063.44
2023-04-22T07:19:42.560Z,100062.59
2023-04-22T07:20:44.838Z,100051.28
2023-04-22T07:21:47.283Z,100056.50
2023-04-22T07:22:49.596Z,100057.59
2023-04-22T07:23:52.126Z,100061.88
2023-04-22T07:24:54.477Z,100051.22
2023-04-22T07:25:56.890Z,100047.41
2023-04-22T07:26:59.143Z,100042.38
2023-04-22T07:28:01.480Z,100049.09
2023-04-22T07:29:04.221Z,100041.75
2023-04-22T07:30:08.383Z,100041.19
2023-04-22T07:31:10.923Z,100050.25
2023-04-22T07:32:13.173Z,100041.59
2023-04-22T07:33:15.461Z,100043.34
2023-04-22T07:34:18.594Z,100046.91
2023-04-22T07:35:20.827Z,100043.88
2023-04-22T07:36:23.066Z,100047.31
2023-04-22T07:37:25.955Z,100051.88
2023-04-22T07:38:28.417Z,100042.75
2023-04-22T07:39:30.663Z,100038.06
2023-04-22T07:40:32.947Z,100037.34
2023-04-22T07:41:36.088Z,100042.63
2023-04-22T07:42:41.488Z,100047.69
2023-04-22T07:43:43.720Z,100040.06
2023-04-22T07:44:46.028Z,100044.63
2023-04-22T07:45:48.453Z,100036.81
2023-04-22T07:46:50.971Z,100041.38
2023-04-22T07:47:53.241Z,100033.41
2023-04-22T07:48:55.562Z,100047.25
2023-04-22T07:49:57.868Z,100047.38
2023-04-22T07:51:00.123Z,100034.91
2023-04-22T07:52:02.450Z,100039.88
2023-04-22T07:53:04.736Z,100040.25
2023-04-22T07:54:07.595Z,100045.16
2023-04-22T07:55:10.049Z,100035.19
2023-04-22T07:56:13.208Z,100031.56
2023-04-22T07:57:15.414Z,100020.41
2023-04-22T07:58:20.438Z,100028.16
2023-04-22T07:59:22.668Z,100025.78
2023-04-22T08:00:24.938Z,100031.06
2023-04-22T08:01:27.372Z,100031.06
2023-04-22T08:02:29.756Z,100028.25
2023-04-22T08:03:32.240Z,100024.25
2023-04-22T08:04:35.210Z,100021.09
2023-04-22T08:05:37.529Z,100028.47
2023-04-22T08:06:39.906Z,100029.28
2023-04-22T08:07:42.378Z,100025.31
2023-04-22T08:08:44.631Z,100029.06
2023-04-22T08:09:46.987Z,100024.38
2023-04-22T08:10:49.483Z,100026.84
2023-04-22T08:11:52.781Z,100024.59
2023-04-22T08:12:55.144Z,100028.69
2023-04-22T08:13:57.460Z,100021.16
2023-04-22T08:14:59.753Z,100032.91
2023-04-22T08:16:03.598Z,100029.72
2023-04-22T08:17:06.285Z,100037.47
2023-04-22T08:18:08.565Z,100022.19
2023-04-22T08:19:11.131Z,100027.84
2023-04-22T08:20:15.618Z,100022.69
2023-04-22T08:21:17.935Z,100031.56
2023-04-22T08:22:20.238Z,100018.78
2023-04-22T08:23:22.717Z,100026.16
2023-04-22T08:24:25.044Z,100024.66
2023-04-22T08:25:28.067Z,100040.03
2023-04-22T08:26:30.665Z,100030.06
2023-04-22T08:27:32.922Z,100024.16
2023-04-22T08:28:35.632Z,100022.16
2023-04-22T08:29:38.370Z,100027.91
2023-04-22T08:30:41.191Z,100030.00
2023-04-22T08:31:43.500Z,100018.03
2023-04-22T08:32:46.268Z,100019.75
2023-04-22T08:33:48.824Z,100015.38
2023-04-22T08:34:52.056Z,100021.59
2023-04-22T08:35:56.391Z,100021.69
2023-04-22T08:36:58.848Z,100024.25
2023-04-22T08:38:01.194Z,100016.69
2023-04-22T08:39:03.510Z,100025.25
2023-04-22T08:40:06.879Z,100012.44
2023-04-22T08:41:10.232Z,100018.66
2023-04-22T08:42:13.492Z,100019.91
2023-04-22T08:43:16.111Z,100022.84
2023-04-22T08:44:19.472Z,100020.63
2023-04-22T08:45:22.235Z,100025.16
2023-04-22T08:46:25.933Z,100017.97
2023-04-22T08:47:29.039Z,100018.06
2023-04-22T08:48:32.733Z,100022.16
2023-04-22T08:49:38.191Z,100019.44
2023-04-22T08:50:41.509Z,100011.03
2023-04-22T08:51:45.032Z,100006.25
2023-04-22T08:52:47.309Z,100008.31
2023-04-22T08:53:50.074Z,99995.47
2023-04-22T08:54:52.882Z,100004.78
2023-04-22T08:55:56.862Z,99993.03
2023-04-22T08:57:01.485Z,100003.59
2023-04-22T08:58:06.409Z,100007.34
2023-04-22T08:59:13.529Z,99998.88
2023-04-22T09:00:16.653Z,99993.66
2023-04-22T09:01:19.239Z,99996.94
2023-04-22T09:02:23.604Z,100000.69
2023-04-22T09:03:26.765Z,100004.31
2023-04-22T09:04:29.345Z,99999.13
2023-04-22T09:05:35.387Z,100000.69
2023-04-22T09:06:39.137Z,100007.97
2023-04-22T09:07:41.674Z,99990.19
2023-04-22T09:08:43.965Z,99991.75
2023-04-22T09:09:46.263Z,99981.63
2023-04-22T09:10:48.917Z,99995.41
2023-04-22T09:11:51.121Z,99984.09
2023-04-22T09:12:54.603Z,99986.09
2023-04-22T09:13:56.900Z,99978.00
2023-04-22T09:14:59.236Z,99980.00
2023-04-22T09:16:01.578Z,99974.81
2023-04-22T09:17:04.050Z,99982.09
2023-04-22T09:18:09.594Z,99973.16
2023-04-22T09:19:13.436Z,99978.38
2023-04-22T09:20:17.898Z,99983.00
2023-04-22T09:21:20.310Z,99968.16
2023-04-22T09:22:22.623Z,99977.38
2023-04-22T09:23:25.344Z,99968.00
2023-04-22T09:24:27.747Z,99975.63
2023-04-22T09:25:30.021Z,99980.00
2023-04-22T09:26:32.473Z,99978.72
2023-04-22T09:27:35.679Z,99967.81
2023-04-22T09:28:38.022Z,99968.63
2023-04-22T09:29:48.993Z,99960.97
2023-04-22T09:30:51.304Z,99964.59
2023-04-22T09:31:53.805Z,99961.44
2023-04-22T09:32:58.378Z,99956.97
2023-04-22T09:34:01.453Z,99962.63
2023-04-22T09:35:04.252Z,99957.78
2023-04-22T09:36:09.859Z,99957.25
2023-04-22T09:37:12.843Z,99958.44
2023-04-22T09:38:15.075Z,99959.59
2023-04-22T09:39:17.435Z,99948.59
2023-04-22T09:40:20.213Z,99955.88
2023-04-22T09:41:36.909Z,99951.78
2023-04-22T09:42:51.654Z,99948.44
2023-04-22T09:43:56.655Z,99950.78
2023-04-22T09:45:01.196Z,99949.59
2023-04-22T09:46:04.321Z,99944.78
2023-04-22T09:47:06.845Z,99939.88
2023-04-22T09:48:14.644Z,99948.66
2023-04-22T09:49:17.468Z,99941.75
2023-04-22T09:50:25.275Z,99950.59
2023-04-22T09:51:28.736Z,99930.75
2023-04-22T09:52:33.099Z,99933.94
2023-04-22T09:53:37.627Z,99930.75
2023-04-22T09:54:40.037Z,99932.66
2023-04-22T09:55:45.037Z,99934.63
2023-04-22T09:56:49.626Z,99943.09
2023-04-22T09:57:54.131Z,99935.84
2023-04-22T09:58:56.331Z,99932.06
2023-04-22T09:59:59.128Z,99937.72
2023-04-22T10:01:03.447Z,99936.28
2023-04-22T10:02:07.289Z,99931.00
2023-04-22T10:03:10.688Z,99932.19
2023-04-22T10:04:15.205Z,99931.00
2023-04-22T10:05:18.622Z,99939.81
2023-04-22T10:06:21.961Z,99937.34
2023-04-22T10:07:24.681Z,99942.06
2023-04-22T10:08:27.082Z,99932.69
2023-04-22T10:09:29.455Z,99925.88
2023-04-22T10:10:32.506Z,99934.34
2023-04-22T10:11:34.806Z,99928.25
2023-04-22T10:12:37.578Z,99928.25
2023-04-22T10:13:39.888Z,99922.97
2023-04-22T10:14:42.697Z,99923.34
2023-04-22T10:15:50.575Z,99947.06
2023-04-22T10:16:58.266Z,99930.88
2023-04-22T10:18:01.939Z,99925.25
2023-04-22T10:19:07.494Z,99916.78
2023-04-22T10:20:13.955Z,99930.41
2023-04-22T10:21:18.838Z,99927.03
2023-04-22T10:22:21.357Z,99916.81
2023-04-22T10:23:24.972Z,99919.22
2023-04-22T10:24:30.108Z,99920.13
2023-04-22T10:25:32.618Z,99925.31
2023-04-22T10:26:51.719Z,99912.78
2023-04-22T10:28:05.674Z,99909.38
2023-04-22T10:29:11.071Z,99910.81
2023-04-22T10:30:27.293Z,99902.97
2023-04-22T10:31:29.533Z,99912.63
2023-04-22T10:32:33.375Z,99907.34
2023-04-22T10:33:36.698Z,99917.78
2023-04-22T10:34:41.710Z,99899.59
2023-04-22T10:36:15.770Z,99904.78
2023-04-22T10:37:21.891Z,99908.03
2023-04-22T10:38:24.135Z,99906.06
2023-04-22T10:39:28.488Z,99910.41
2023-04-22T10:40:31.234Z,99916.38
2023-04-22T10:41:35.261Z,99903.03
2023-04-22T10:42:40.594Z,99909.47
2023-04-22T10:43:47.931Z,99904.56
2023-04-22T10:44:53.176Z,99908.09
2023-04-22T10:45:55.513Z,99916.88
2023-04-22T10:46:59.693Z,99903.63
2023-04-22T10:48:05.151Z,99904.81
2023-04-22T10:49:12.121Z,99908.44
2023-04-22T10:50:22.383Z,99905.97
2023-04-22T10:51:41.017Z,99906.69
2023-04-22T10:52:46.426Z,99908.13
2023-04-22T10:53:48.691Z,99900.41
2023-04-22T10:54:50.952Z,99910.72
2023-04-22T10:55:54.039Z,99898.47
2023-04-22T10:57:16.417Z,99901.66
2023-04-22T10:58:20.505Z,99898.84
2023-04-22T10:59:22.877Z,99902.81
2023-04-22T11:00:41.755Z,99896.75
2023-04-22T11:01:52.741Z,99903.19
2023-04-22T11:03:09.057Z,99894.66
2023-04-22T11:04:23.557Z,99899.09
2023-04-22T11:05:27.779Z,99900.16
2023-04-22T11:06:30.535Z,99885.25
2023-04-22T11:07:35.081Z,99891.72
2023-04-22T11:08:37.304Z,99886.91
2023-04-22T11:09:41.024Z,99888.91
2023-04-22T11:10:46.455Z,99887.75
2023-04-22T11:11:50.381Z,99898.16
2023-04-22T11:12:52.951Z,99885.25
2023-04-22T11:13:55.747Z,99887.16
2023-04-22T11:14:58.002Z,99893.13
2023-04-22T11:16:00.799Z,99892.31
2023-04-22T11:17:03.051Z,99893.84
2023-04-22T11:18:11.097Z,99893.50
2023-04-22T11:19:13.436Z,99895.03
2023-04-22T11:20:18.906Z,99893.00
2023-04-22T11:21:21.614Z,99894.53
2023-04-22T11:22:24.800Z,99893.63
2023-04-22T11:23:28.678Z,99898.31
2023-04-22T11:24:31.106Z,99884.13
2023-04-22T11:25:33.358Z,99878.84
2023-04-22T11:26:37.843Z,99904.53
2023-04-22T11:27:41.545Z,99887.53
2023-04-22T11:28:47.810Z,99893.63
2023-04-22T11:30:04.713Z,99879.44
2023-04-22T11:31:10.511Z,99881.81
2023-04-22T11:32:12.857Z,99883.44
2023-04-22T11:33:16.708Z,99885.06
2023-04-22T11:34:19.010Z,99884.13
2023-04-22T11:35:23.526Z,99880.16
2023-04-22T11:36:25.892Z,99872.75
2023-04-22T11:37:28.883Z,99873.13
2023-04-22T11:38:31.518Z,99871.94
2023-04-22T11:39:43.569Z,99874.75
2023-04-22T11:40:55.292Z,99867.50
2023-04-22T11:41:57.528Z,99867.13
2023-04-22T11:43:01.652Z,99876.41
2023-04-22T11:44:03.926Z,99874.41
2023-04-22T11:45:07.478Z,99867.63
2023-04-22T11:46:09.717Z,99876.06
2023-04-22T11:47:12.848Z,99869.94
2023-04-22T11:48:15.764Z,99874.41
2023-04-22T11:49:18.443Z,99874.03
2023-04-22T11:50:27.153Z,99867.97
2023-04-22T11:51:29.418Z,99863.50
2023-04-22T11:53:11.518Z,99862.69
2023-04-22T11:54:13.737Z,99867.69
2023-04-22T11:55:20.057Z,99864.44
2023-04-22T11:56:22.678Z,99858.81
2023-04-22T11:57:26.791Z,99869.22
2023-04-22T11:58:29.026Z,99865.09
2023-04-22T11:59:31.304Z,99851.41
2023-04-22T12:00:37.466Z,99848.59
2023-04-22T12:01:42.305Z,99857.88
2023-04-22T12:02:55.885Z,99862.19
2023-04-22T12:04:01.529Z,99857.25
2023-04-22T12:05:04.229Z,99866.84
2023-04-22T12:06:06.746Z,99860.66
2023-04-22T12:07:09.168Z,99862.31
2023-04-22T12:08:17.384Z,99858.19
2023-04-22T12:09:19.644Z,99867.22
2023-04-22T12:10:23.536Z,99863.91
2023-04-22T12:11:25.859Z,99864.63
2023-04-22T12:12:28.514Z,99858.16
2023-04-22T12:13:33.384Z,99859.81
2023-04-22T12:14:35.962Z,99854.56
2023-04-22T12:15:39.867Z,99855.72
2023-04-22T12:16:43.230Z,99854.56
2023-04-22T12:17:46.565Z,99845.31